Berea, Ohio
Current Conditions -  °F | °C
As of 4:51 AM on Friday 21 Nov 2014 (Local Time) from KCLE Reporting Station
Light Snow Light Snow  
Wind Chill:   Ceiling: 4800
Heat Index: 19°   Visibility: 6mi
Dew Point: 16°   Wind: 10mph
Humidity: 88%   Direction: 250°WSW
Pressure: 30.31"   Gusts: NA
Location:  41.37°N, 81.85°W
Report Text: KCLE 210951Z 25009KT 6SM -SN FEW026 OVC048 M07/M09 A3031 RMK AO2 SLP276 P0005 T10721089 $
Loading
Personal Weather Stations






























Interactive Weather Map New forecast layout! Learn more

10-Day Weather Forecast

Advertisements
Track Severe Weather on mobile